Time;durP1;ratioP1;P1;durP2;ratioP2;P2;SDS_P1;SDS_P2;PMS_P1;PMS_P2;Temp;Humidity;BMP_temperature;BMP_pressure;BME280_temperature;BME280_humidity;BME280_pressure;Samples;Min_cycle;Max_cycle;Signal;HPM_P1;HPM_P2
2023/08/09 00:01:35;;;;;;;;;;;16.00;86.60;;;;;;4989640;28;20020;-73
2023/08/09 00:04:11;;;;;;;;;;;16.00;86.60;;;;;;4989508;28;19934;-73
2023/08/09 00:06:39;;;;;;;;;;;16.00;86.60;;;;;;4989749;28;19933;-72
2023/08/09 00:09:08;;;;;;;;;;;15.90;86.90;;;;;;4988041;28;19977;-73
2023/08/09 00:11:39;;;;;;;;;;;15.90;87.10;;;;;;4986629;28;19936;-73
2023/08/09 00:14:08;;;;;;;;;;;16.00;86.80;;;;;;4989160;28;19930;-73
2023/08/09 00:16:35;;;;;;;;;;;16.00;86.90;;;;;;4988782;28;19941;-74
2023/08/09 00:19:06;;;;;;;;;;;16.00;86.90;;;;;;4982414;28;19940;-73
2023/08/09 00:21:40;;;;;;;;;;;15.90;86.90;;;;;;4988228;28;19933;-73
2023/08/09 00:24:12;;;;;;;;;;;16.00;86.70;;;;;;4988052;28;19952;-73
2023/08/09 00:26:41;;;;;;;;;;;15.90;86.90;;;;;;4988714;28;20413;-73
2023/08/09 00:29:10;;;;;;;;;;;15.90;86.90;;;;;;5002309;28;19965;-73
2023/08/09 00:31:52;;;;;;;;;;;15.90;87.00;;;;;;4987976;28;20686;-73
2023/08/09 00:34:31;;;;;;;;;;;16.00;86.90;;;;;;4989076;28;19934;-73
2023/08/09 00:37:04;;;;;;;;;;;15.90;87.00;;;;;;4989340;28;20207;-69
2023/08/09 00:39:39;;;;;;;;;;;15.90;87.10;;;;;;4973557;28;19929;-70
2023/08/09 00:42:10;;;;;;;;;;;15.90;87.10;;;;;;4984021;28;19933;-71
2023/08/09 00:44:47;;;;;;;;;;;15.90;87.00;;;;;;4987573;28;19926;-71
2023/08/09 00:47:26;;;;;;;;;;;15.90;87.20;;;;;;4970859;28;20443;-70
2023/08/09 00:50:00;;;;;;;;;;;15.90;87.10;;;;;;4988921;28;20016;-70
2023/08/09 00:52:39;;;;;;;;;;;15.90;87.20;;;;;;4989174;28;20396;-70
2023/08/09 00:55:19;;;;;;;;;;;16.00;87.10;;;;;;4989579;28;20008;-71
2023/08/09 00:57:57;;;;;;;;;;;16.00;87.10;;;;;;4989845;28;20309;-70
2023/08/09 01:00:27;;;;;;;;;;;15.90;87.30;;;;;;4986406;28;19933;-71
2023/08/09 01:02:57;;;;;;;;;;;15.90;87.40;;;;;;4988338;28;19926;-70
2023/08/09 01:05:27;;;;;;;;;;;15.90;87.40;;;;;;4983384;28;20014;-70
2023/08/09 01:07:56;;;;;;;;;;;15.90;87.40;;;;;;4988526;28;20385;-69
2023/08/09 01:10:29;;;;;;;;;;;15.90;87.60;;;;;;4987946;28;19926;-69
2023/08/09 01:12:58;;;;;;;;;;;15.90;87.80;;;;;;4988805;28;20026;-69
2023/08/09 01:15:27;;;;;;;;;;;15.90;87.80;;;;;;4987815;28;19936;-69
2023/08/09 01:18:04;;;;;;;;;;;15.80;87.70;;;;;;4987579;28;19930;-70
2023/08/09 01:20:37;;;;;;;;;;;15.90;87.60;;;;;;4987369;28;19929;-71
2023/08/09 01:23:19;;;;;;;;;;;15.90;87.80;;;;;;4988284;28;19929;-70
2023/08/09 01:25:55;;;;;;;;;;;15.90;87.80;;;;;;4987259;28;19930;-70
2023/08/09 01:28:32;;;;;;;;;;;15.90;87.80;;;;;;4987496;28;19926;-69
2023/08/09 01:31:07;;;;;;;;;;;15.90;87.90;;;;;;4987162;28;20409;-69
2023/08/09 01:33:45;;;;;;;;;;;15.90;87.70;;;;;;4985579;28;19933;-70
2023/08/09 01:36:26;;;;;;;;;;;15.90;88.00;;;;;;4987593;28;19926;-70
2023/08/09 01:39:12;;;;;;;;;;;15.80;88.10;;;;;;4985770;28;20274;-71
2023/08/09 01:41:56;;;;;;;;;;;15.90;88.00;;;;;;4985688;28;19933;-70
2023/08/09 01:44:35;;;;;;;;;;;15.90;88.00;;;;;;5002011;28;20404;-71
2023/08/09 01:47:12;;;;;;;;;;;15.80;88.20;;;;;;4987065;28;19945;-70
2023/08/09 01:49:51;;;;;;;;;;;15.80;88.20;;;;;;4988074;28;19933;-70
2023/08/09 01:52:32;;;;;;;;;;;15.80;88.10;;;;;;4989089;28;19934;-70
2023/08/09 01:55:05;;;;;;;;;;;15.80;88.20;;;;;;4990516;28;19937;-70
2023/08/09 01:57:45;;;;;;;;;;;15.90;88.20;;;;;;4991920;28;19948;-68
2023/08/09 02:00:20;;;;;;;;;;;15.80;88.30;;;;;;4969604;28;19934;-70
2023/08/09 02:02:59;;;;;;;;;;;15.90;88.30;;;;;;4968179;28;19930;-71
2023/08/09 02:05:38;;;;;;;;;;;15.90;88.30;;;;;;4992466;28;19948;-70
2023/08/09 02:08:14;;;;;;;;;;;15.80;88.50;;;;;;4990504;28;20274;-71
2023/08/09 02:10:53;;;;;;;;;;;15.90;88.50;;;;;;4997064;28;20472;-69
2023/08/09 02:13:34;;;;;;;;;;;15.80;88.70;;;;;;4992047;28;19977;-72
2023/08/09 02:16:12;;;;;;;;;;;15.90;88.50;;;;;;4972758;28;19944;-70
2023/08/09 02:18:44;;;;;;;;;;;15.90;88.50;;;;;;4990410;28;19937;-70
2023/08/09 02:21:15;;;;;;;;;;;15.80;88.70;;;;;;4974020;28;19932;-70
2023/08/09 02:23:47;;;;;;;;;;;15.80;88.60;;;;;;4991012;28;20436;-71
2023/08/09 02:26:24;;;;;;;;;;;15.80;88.80;;;;;;4991917;28;20463;-70
2023/08/09 02:29:04;;;;;;;;;;;15.80;88.80;;;;;;4991393;28;19930;-70
2023/08/09 02:31:41;;;;;;;;;;;15.80;88.80;;;;;;4980330;28;19964;-70
2023/08/09 02:34:19;;;;;;;;;;;15.80;88.70;;;;;;4989466;28;19930;-71
2023/08/09 02:36:54;;;;;;;;;;;15.80;88.80;;;;;;4996936;28;19980;-69
2023/08/09 02:39:27;;;;;;;;;;;15.80;88.80;;;;;;4971730;28;19930;-70
2023/08/09 02:42:03;;;;;;;;;;;15.70;89.10;;;;;;4990863;28;19933;-70
2023/08/09 02:44:45;;;;;;;;;;;15.80;88.90;;;;;;4991333;28;19961;-70
2023/08/09 02:47:25;;;;;;;;;;;15.70;88.90;;;;;;5005178;28;19936;-71
2023/08/09 02:50:00;;;;;;;;;;;15.80;88.70;;;;;;4988449;28;19934;-71
2023/08/09 02:52:34;;;;;;;;;;;15.80;88.80;;;;;;4990360;28;19929;-69
2023/08/09 02:55:13;;;;;;;;;;;15.70;88.90;;;;;;4970969;28;19966;-72
2023/08/09 02:57:46;;;;;;;;;;;15.80;88.80;;;;;;4960075;28;20402;-67
2023/08/09 03:00:25;;;;;;;;;;;15.80;88.70;;;;;;4971560;28;19937;-67
2023/08/09 03:03:04;;;;;;;;;;;15.80;88.70;;;;;;4971935;28;20423;-66
2023/08/09 03:05:39;;;;;;;;;;;15.80;88.90;;;;;;4987612;28;19930;-67
2023/08/09 03:08:10;;;;;;;;;;;15.80;88.70;;;;;;4990870;28;19926;-66
2023/08/09 03:10:44;;;;;;;;;;;15.80;88.70;;;;;;4991495;28;19926;-67
2023/08/09 03:13:21;;;;;;;;;;;15.80;88.50;;;;;;4990937;28;19926;-67
2023/08/09 03:15:56;;;;;;;;;;;15.70;88.70;;;;;;4990551;28;19948;-67
2023/08/09 03:18:29;;;;;;;;;;;15.80;88.70;;;;;;4987849;28;19929;-66
2023/08/09 03:21:06;;;;;;;;;;;15.80;88.80;;;;;;4988714;28;19930;-67
2023/08/09 03:23:41;;;;;;;;;;;15.70;88.90;;;;;;4988275;28;20396;-67
2023/08/09 03:26:18;;;;;;;;;;;15.80;88.80;;;;;;5005395;28;19926;-67
2023/08/09 03:29:02;;;;;;;;;;;15.70;89.00;;;;;;4988553;28;19936;-67
2023/08/09 03:31:41;;;;;;;;;;;15.70;89.10;;;;;;5005692;28;20009;-65
2023/08/09 03:34:21;;;;;;;;;;;15.70;89.10;;;;;;4979669;28;20358;-66
2023/08/09 03:36:54;;;;;;;;;;;15.70;89.10;;;;;;4955575;28;20009;-67
2023/08/09 03:39:31;;;;;;;;;;;15.70;89.00;;;;;;4969551;28;20396;-66
2023/08/09 03:42:10;;;;;;;;;;;15.70;89.00;;;;;;4988910;28;20539;-69
2023/08/09 03:44:44;;;;;;;;;;;15.70;89.00;;;;;;4990448;28;19957;-67
2023/08/09 03:47:22;;;;;;;;;;;15.70;89.00;;;;;;5004401;28;19930;-67
2023/08/09 03:49:58;;;;;;;;;;;15.70;89.10;;;;;;5005677;28;19930;-66
2023/08/09 03:52:35;;;;;;;;;;;15.70;89.20;;;;;;4990001;28;19937;-65
2023/08/09 03:55:09;;;;;;;;;;;15.70;89.20;;;;;;4984006;28;19933;-66
2023/08/09 03:57:45;;;;;;;;;;;15.70;89.20;;;;;;4988379;28;19926;-67
2023/08/09 04:00:22;;;;;;;;;;;15.70;89.10;;;;;;4989094;28;19934;-65
2023/08/09 04:02:59;;;;;;;;;;;15.70;89.00;;;;;;4992816;28;20280;-65
2023/08/09 04:05:35;;;;;;;;;;;15.70;89.20;;;;;;4990235;28;19960;-67
2023/08/09 04:08:13;;;;;;;;;;;15.70;89.20;;;;;;4989268;28;20862;-71
2023/08/09 04:10:49;;;;;;;;;;;15.70;89.20;;;;;;4989883;28;20000;-71
2023/08/09 04:13:29;;;;;;;;;;;15.70;89.20;;;;;;4986993;28;19929;-71
2023/08/09 04:16:05;;;;;;;;;;;15.70;89.40;;;;;;4989303;28;20381;-71
2023/08/09 04:18:44;;;;;;;;;;;15.70;89.20;;;;;;4988553;28;19951;-71
2023/08/09 04:21:22;;;;;;;;;;;15.70;89.20;;;;;;4988791;28;19930;-72
2023/08/09 04:23:55;;;;;;;;;;;15.70;89.40;;;;;;4989539;28;19934;-72
2023/08/09 04:26:29;;;;;;;;;;;15.70;89.40;;;;;;4990616;28;19941;-72
2023/08/09 04:29:11;;;;;;;;;;;15.70;89.30;;;;;;5004141;28;20020;-71
2023/08/09 04:31:47;;;;;;;;;;;15.70;89.20;;;;;;4989721;28;19926;-71
2023/08/09 04:34:28;;;;;;;;;;;15.80;89.20;;;;;;4988392;28;19933;-71
2023/08/09 04:37:03;;;;;;;;;;;15.80;89.20;;;;;;4989216;28;19926;-73
2023/08/09 04:39:44;;;;;;;;;;;15.80;89.20;;;;;;4988777;28;19936;-71
2023/08/09 04:42:21;;;;;;;;;;;15.80;89.20;;;;;;4988305;28;19930;-72
2023/08/09 04:45:15;;;;;;;;;;;15.80;89.20;;;;;;4985522;28;20050;-71
2023/08/09 04:48:01;;;;;;;;;;;15.70;89.30;;;;;;4987774;28;19929;-71
2023/08/09 04:50:40;;;;;;;;;;;15.80;89.40;;;;;;4981754;28;19933;-71
2023/08/09 04:53:17;;;;;;;;;;;15.80;89.30;;;;;;4989398;28;19936;-71
2023/08/09 04:55:54;;;;;;;;;;;15.80;89.30;;;;;;4990128;28;19932;-71
2023/08/09 04:58:29;;;;;;;;;;;15.80;89.40;;;;;;4987585;28;19929;-71
2023/08/09 05:01:06;;;;;;;;;;;15.70;89.50;;;;;;4986794;28;20020;-71
2023/08/09 05:03:45;;;;;;;;;;;15.80;89.30;;;;;;4963720;28;19933;-71
2023/08/09 05:06:27;;;;;;;;;;;15.80;89.30;;;;;;4986459;28;20262;-71
2023/08/09 05:09:04;;;;;;;;;;;15.80;89.30;;;;;;4988569;28;20418;-70
2023/08/09 05:11:39;;;;;;;;;;;15.90;89.40;;;;;;4989663;28;20396;-72
2023/08/09 05:14:16;;;;;;;;;;;15.80;89.10;;;;;;4988238;28;19933;-71
2023/08/09 05:16:55;;;;;;;;;;;15.90;89.30;;;;;;4988988;28;19934;-69
2023/08/09 05:19:31;;;;;;;;;;;15.90;89.40;;;;;;4985359;28;19972;-67
2023/08/09 05:22:14;;;;;;;;;;;15.80;89.30;;;;;;4988344;28;19926;-68
2023/08/09 05:24:51;;;;;;;;;;;15.90;89.30;;;;;;4987544;28;20305;-68
2023/08/09 05:27:27;;;;;;;;;;;15.90;89.50;;;;;;4986594;28;19933;-68
2023/08/09 05:30:04;;;;;;;;;;;15.90;89.30;;;;;;4987346;28;20385;-68
2023/08/09 05:32:44;;;;;;;;;;;15.90;89.40;;;;;;4983361;28;19976;-67
2023/08/09 05:35:26;;;;;;;;;;;15.90;89.40;;;;;;4988396;28;19926;-69
2023/08/09 05:38:09;;;;;;;;;;;15.90;89.40;;;;;;4989339;28;19934;-68
2023/08/09 05:40:50;;;;;;;;;;;15.90;89.50;;;;;;4987399;28;19933;-68
2023/08/09 05:43:26;;;;;;;;;;;15.90;89.60;;;;;;4987658;28;19926;-68
2023/08/09 05:46:02;;;;;;;;;;;15.90;89.60;;;;;;4988319;28;19929;-68
2023/08/09 05:48:38;;;;;;;;;;;15.90;89.30;;;;;;4988036;28;20021;-68
2023/08/09 05:51:14;;;;;;;;;;;15.90;89.60;;;;;;4988407;28;19926;-69
2023/08/09 05:53:53;;;;;;;;;;;15.90;89.80;;;;;;4981924;28;19930;-68
2023/08/09 05:56:30;;;;;;;;;;;15.90;89.70;;;;;;4989340;28;19936;-68
2023/08/09 05:59:10;;;;;;;;;;;15.90;89.80;;;;;;4987789;28;19932;-71
2023/08/09 06:01:50;;;;;;;;;;;15.90;89.80;;;;;;4989278;28;20437;-68
2023/08/09 06:04:26;;;;;;;;;;;15.90;89.80;;;;;;4988018;28;19930;-68
2023/08/09 06:07:04;;;;;;;;;;;15.90;89.70;;;;;;4987604;28;19930;-67
2023/08/09 06:09:50;;;;;;;;;;;15.90;89.80;;;;;;4984981;28;19952;-68
2023/08/09 06:12:30;;;;;;;;;;;15.90;90.00;;;;;;4987711;28;20293;-69
2023/08/09 06:15:08;;;;;;;;;;;15.90;89.70;;;;;;4988467;28;19934;-69
2023/08/09 06:17:49;;;;;;;;;;;16.00;89.70;;;;;;4988754;28;19934;-68
2023/08/09 06:20:27;;;;;;;;;;;15.90;89.80;;;;;;4987940;28;20377;-68
2023/08/09 06:23:02;;;;;;;;;;;15.90;90.00;;;;;;4987913;28;19929;-68
2023/08/09 06:25:43;;;;;;;;;;;15.90;89.80;;;;;;4987939;28;19926;-67
2023/08/09 06:28:20;;;;;;;;;;;15.90;89.50;;;;;;4984848;28;19977;-72
2023/08/09 06:31:06;;;;;;;;;;;15.70;89.10;;;;;;4988059;28;19926;-72
2023/08/09 06:34:00;;;;;;;;;;;15.70;89.10;;;;;;4986889;28;19937;-71
2023/08/09 06:36:35;;;;;;;;;;;15.70;88.80;;;;;;4987185;28;19999;-72
2023/08/09 06:39:12;;;;;;;;;;;15.70;88.90;;;;;;4987480;28;20295;-72
2023/08/09 06:41:54;;;;;;;;;;;15.70;88.90;;;;;;4991698;28;20526;-72
2023/08/09 06:44:32;;;;;;;;;;;15.70;88.70;;;;;;4989392;28;19948;-72
2023/08/09 06:47:08;;;;;;;;;;;15.70;88.50;;;;;;4972620;28;19926;-72
2023/08/09 06:49:51;;;;;;;;;;;15.70;88.30;;;;;;4990685;28;20273;-73
2023/08/09 06:52:27;;;;;;;;;;;15.70;88.40;;;;;;4988581;28;19926;-72
2023/08/09 06:55:10;;;;;;;;;;;15.60;88.50;;;;;;4990953;28;19933;-72
2023/08/09 06:57:49;;;;;;;;;;;15.60;88.20;;;;;;4991198;28;20274;-72
2023/08/09 07:00:30;;;;;;;;;;;15.70;87.90;;;;;;4990878;28;20325;-72
2023/08/09 07:03:07;;;;;;;;;;;15.70;87.90;;;;;;4991490;28;19925;-72
2023/08/09 07:05:44;;;;;;;;;;;15.70;87.80;;;;;;4990541;28;19934;-73
2023/08/09 07:08:23;;;;;;;;;;;15.80;87.80;;;;;;4990734;28;19941;-73
2023/08/09 07:11:04;;;;;;;;;;;15.70;87.80;;;;;;4991369;28;20345;-73
2023/08/09 07:13:43;;;;;;;;;;;15.70;87.90;;;;;;4989711;28;19930;-72
2023/08/09 07:16:24;;;;;;;;;;;15.80;88.10;;;;;;5004959;28;19929;-74
2023/08/09 07:19:03;;;;;;;;;;;15.90;87.90;;;;;;5004989;28;20301;-75
2023/08/09 07:21:39;;;;;;;;;;;15.90;87.70;;;;;;4990377;28;19934;-73
2023/08/09 07:24:18;;;;;;;;;;;16.00;87.60;;;;;;4989391;28;20385;-73
2023/08/09 07:26:55;;;;;;;;;;;16.00;87.60;;;;;;4988988;28;20024;-74
2023/08/09 07:29:33;;;;;;;;;;;16.10;87.80;;;;;;4991056;28;19929;-73
2023/08/09 07:32:16;;;;;;;;;;;16.00;87.60;;;;;;4990121;28;19932;-71
2023/08/09 07:34:53;;;;;;;;;;;16.10;87.50;;;;;;4989115;28;20025;-73
2023/08/09 07:37:35;;;;;;;;;;;16.10;87.50;;;;;;4989976;28;19930;-71
2023/08/09 07:40:13;;;;;;;;;;;16.20;87.10;;;;;;4988901;28;20400;-71
2023/08/09 07:42:50;;;;;;;;;;;16.20;87.00;;;;;;4988731;28;19930;-72
2023/08/09 07:45:34;;;;;;;;;;;16.20;87.10;;;;;;4990471;28;20369;-72
2023/08/09 07:48:15;;;;;;;;;;;16.30;86.90;;;;;;4988386;28;19932;-71
2023/08/09 07:51:10;;;;;;;;;;;16.30;87.20;;;;;;4990641;28;19932;-72
2023/08/09 07:53:46;;;;;;;;;;;16.40;87.30;;;;;;4989316;28;19999;-70
2023/08/09 07:56:28;;;;;;;;;;;16.50;86.90;;;;;;4990198;28;19980;-71
2023/08/09 07:59:04;;;;;;;;;;;16.50;86.50;;;;;;4988618;28;19936;-72
2023/08/09 08:01:48;;;;;;;;;;;16.60;86.20;;;;;;4988691;28;19926;-71
2023/08/09 08:04:26;;;;;;;;;;;16.70;86.40;;;;;;4987026;28;19964;-71
2023/08/09 08:07:01;;;;;;;;;;;16.80;86.10;;;;;;4989094;28;20028;-70
2023/08/09 08:09:32;;;;;;;;;;;16.80;86.30;;;;;;4989277;28;19925;-69
2023/08/09 08:12:11;;;;;;;;;;;16.80;86.00;;;;;;4990608;28;20308;-70
2023/08/09 08:14:59;;;;;;;;;;;17.10;85.60;;;;;;4988132;28;19957;-71
2023/08/09 08:17:38;;;;;;;;;;;17.30;85.10;;;;;;4990694;28;20405;-73
2023/08/09 08:20:20;;;;;;;;;;;17.60;84.70;;;;;;4989047;28;20012;-72
2023/08/09 08:23:06;;;;;;;;;;;17.70;84.50;;;;;;4989051;28;19929;-72
2023/08/09 08:25:44;;;;;;;;;;;17.90;84.70;;;;;;4989273;28;20407;-73
2023/08/09 08:28:22;;;;;;;;;;;17.90;84.60;;;;;;4988701;28;19929;-71
2023/08/09 08:30:59;;;;;;;;;;;17.80;84.90;;;;;;4987271;28;20862;-70
2023/08/09 08:33:46;;;;;;;;;;;17.70;84.70;;;;;;4989136;28;20852;-71
2023/08/09 08:36:28;;;;;;;;;;;17.60;84.60;;;;;;4987157;28;19926;-72
2023/08/09 08:39:14;;;;;;;;;;;17.70;84.30;;;;;;4989033;28;19934;-70
2023/08/09 08:41:50;;;;;;;;;;;18.10;83.10;;;;;;4989535;28;20082;-70
2023/08/09 08:44:27;;;;;;;;;;;18.20;81.80;;;;;;4989027;28;19933;-71
2023/08/09 08:47:06;;;;;;;;;;;18.20;81.60;;;;;;4988809;28;20467;-63
2023/08/09 08:49:54;;;;;;;;;;;18.10;81.40;;;;;;4988400;28;19926;-69
2023/08/09 08:52:39;;;;;;;;;;;18.10;82.50;;;;;;4989331;28;19932;-69
2023/08/09 08:55:17;;;;;;;;;;;18.10;82.70;;;;;;4987887;28;19934;-69
2023/08/09 08:57:58;;;;;;;;;;;18.30;82.20;;;;;;4989017;28;20020;-69
2023/08/09 09:00:48;;;;;;;;;;;18.50;82.00;;;;;;4988457;28;19932;-70
2023/08/09 09:03:30;;;;;;;;;;;18.80;81.50;;;;;;4986930;28;19934;-68
2023/08/09 09:06:12;;;;;;;;;;;19.10;80.10;;;;;;4988026;28;20021;-69
2023/08/09 09:08:49;;;;;;;;;;;19.10;78.40;;;;;;4988693;28;19936;-68
2023/08/09 09:11:27;;;;;;;;;;;19.20;78.60;;;;;;4988644;28;20293;-69
2023/08/09 09:13:58;;;;;;;;;;;19.30;78.60;;;;;;4987831;28;19929;-69
2023/08/09 09:16:34;;;;;;;;;;;19.60;78.20;;;;;;4987570;28;19930;-69
2023/08/09 09:19:10;;;;;;;;;;;19.70;78.80;;;;;;4987482;28;19926;-69
2023/08/09 09:21:55;;;;;;;;;;;19.80;78.00;;;;;;4987295;28;19951;-69
2023/08/09 09:24:32;;;;;;;;;;;19.60;78.20;;;;;;4988864;28;20342;-69
2023/08/09 09:27:08;;;;;;;;;;;19.60;77.90;;;;;;4987822;28;20377;-70
2023/08/09 09:29:53;;;;;;;;;;;19.80;77.90;;;;;;4988911;28;19936;-70
2023/08/09 09:32:28;;;;;;;;;;;20.00;77.50;;;;;;4986861;28;19930;-70
2023/08/09 09:35:11;;;;;;;;;;;20.10;76.60;;;;;;4987679;28;19949;-69
2023/08/09 09:37:52;;;;;;;;;;;20.10;75.80;;;;;;4988457;28;20356;-70
2023/08/09 09:40:30;;;;;;;;;;;20.20;75.50;;;;;;4987828;28;19930;-70
2023/08/09 09:43:23;;;;;;;;;;;20.30;75.30;;;;;;4987775;28;20021;-70
2023/08/09 09:46:03;;;;;;;;;;;20.40;74.90;;;;;;5003102;28;19925;-70
2023/08/09 09:48:40;;;;;;;;;;;20.30;74.70;;;;;;4986323;28;19952;-69
2023/08/09 09:51:27;;;;;;;;;;;20.50;74.70;;;;;;4988974;28;19926;-69
2023/08/09 09:54:10;;;;;;;;;;;20.70;73.80;;;;;;4988038;28;19932;-69
2023/08/09 09:56:47;;;;;;;;;;;21.00;72.60;;;;;;4975221;28;19962;-69
2023/08/09 09:59:34;;;;;;;;;;;21.20;72.40;;;;;;4968314;28;19927;-68
2023/08/09 10:02:17;;;;;;;;;;;21.40;72.80;;;;;;4967380;28;19965;-69
2023/08/09 10:04:55;;;;;;;;;;;21.40;72.20;;;;;;4963367;28;19966;-68
2023/08/09 10:07:56;;;;;;;;;;;21.30;71.70;;;;;;4966030;28;19933;-67
2023/08/09 10:11:01;;;;;;;;;;;21.50;71.90;;;;;;4987257;28;19930;-69
2023/08/09 10:14:07;;;;;;;;;;;21.60;70.80;;;;;;4986232;28;20015;-69
2023/08/09 10:17:00;;;;;;;;;;;21.50;69.80;;;;;;4990848;28;19965;-69
2023/08/09 10:19:37;;;;;;;;;;;21.60;70.00;;;;;;4986952;28;19949;-68
2023/08/09 10:22:21;;;;;;;;;;;21.80;69.30;;;;;;4991201;28;19925;-69
2023/08/09 10:25:02;;;;;;;;;;;21.60;70.00;;;;;;4991342;28;20368;-69
2023/08/09 10:28:00;;;;;;;;;;;21.40;68.90;;;;;;4991874;28;19932;-68
2023/08/09 10:30:51;;;;;;;;;;;21.20;68.50;;;;;;4991391;28;19929;-69
2023/08/09 10:33:36;;;;;;;;;;;20.90;68.80;;;;;;4989752;28;19926;-68
2023/08/09 10:36:19;;;;;;;;;;;21.00;68.20;;;;;;4988384;28;20377;-70
2023/08/09 10:39:00;;;;;;;;;;;20.90;67.00;;;;;;4991556;28;19938;-68
2023/08/09 10:41:41;;;;;;;;;;;21.10;66.80;;;;;;4991842;28;19936;-69
2023/08/09 10:44:48;;;;;;;;;;;21.30;66.20;;;;;;4990907;28;19957;-68
2023/08/09 10:47:30;;;;;;;;;;;21.60;66.50;;;;;;4990624;28;20047;-69
2023/08/09 10:50:32;;;;;;;;;;;21.70;66.70;;;;;;4988469;28;19936;-70
2023/08/09 10:53:25;;;;;;;;;;;21.60;66.00;;;;;;4990856;28;19926;-69
2023/08/09 10:56:02;;;;;;;;;;;21.70;66.10;;;;;;4990644;28;20382;-69
2023/08/09 10:58:45;;;;;;;;;;;22.00;65.20;;;;;;4990035;28;20516;-68
2023/08/09 11:01:25;;;;;;;;;;;21.90;65.00;;;;;;4990219;28;19925;-69
2023/08/09 11:04:06;;;;;;;;;;;21.60;64.60;;;;;;4990829;28;19985;-68
2023/08/09 11:06:45;;;;;;;;;;;21.30;64.70;;;;;;4992014;28;19957;-69
2023/08/09 11:09:22;;;;;;;;;;;21.20;65.40;;;;;;4990862;28;19933;-65
2023/08/09 11:11:58;;;;;;;;;;;21.10;64.40;;;;;;4991954;28;19930;-65
2023/08/09 11:14:36;;;;;;;;;;;21.00;64.50;;;;;;4990693;28;19964;-67
2023/08/09 11:17:26;;;;;;;;;;;21.20;65.20;;;;;;4988102;28;19953;-64
2023/08/09 11:20:15;;;;;;;;;;;21.40;64.20;;;;;;4989374;28;20404;-65
2023/08/09 11:22:57;;;;;;;;;;;21.30;65.70;;;;;;4990792;28;20012;-64
2023/08/09 11:25:36;;;;;;;;;;;21.20;65.50;;;;;;4989526;28;21147;-66
2023/08/09 11:28:17;;;;;;;;;;;21.10;64.90;;;;;;4988573;28;19936;-65
2023/08/09 11:30:58;;;;;;;;;;;21.10;65.00;;;;;;4990620;28;19953;-64
2023/08/09 11:33:36;;;;;;;;;;;21.20;65.50;;;;;;4987573;28;19940;-64
2023/08/09 11:36:18;;;;;;;;;;;21.40;65.60;;;;;;4988489;28;19937;-64
2023/08/09 11:38:55;;;;;;;;;;;21.50;64.20;;;;;;4990472;28;20404;-65
2023/08/09 11:41:31;;;;;;;;;;;21.60;63.60;;;;;;4990010;28;20012;-66
2023/08/09 11:44:11;;;;;;;;;;;21.60;63.30;;;;;;4990210;28;19930;-66
2023/08/09 11:46:51;;;;;;;;;;;21.70;63.70;;;;;;4990659;28;19926;-64
2023/08/09 11:49:31;;;;;;;;;;;21.70;63.40;;;;;;4989520;28;20313;-66
2023/08/09 11:52:12;;;;;;;;;;;21.80;61.20;;;;;;4990876;28;19981;-64
2023/08/09 11:54:48;;;;;;;;;;;21.80;59.60;;;;;;4990400;28;19929;-64
2023/08/09 11:57:25;;;;;;;;;;;21.80;59.20;;;;;;4990682;28;20017;-65
2023/08/09 12:00:02;;;;;;;;;;;22.00;59.80;;;;;;4989701;28;20001;-64
2023/08/09 12:02:43;;;;;;;;;;;22.00;58.30;;;;;;4988698;28;19930;-64
2023/08/09 12:05:24;;;;;;;;;;;22.10;57.80;;;;;;4988862;28;19925;-66
2023/08/09 12:08:12;;;;;;;;;;;22.10;57.60;;;;;;4989669;28;19934;-65
2023/08/09 12:10:49;;;;;;;;;;;22.10;57.70;;;;;;4989716;28;19996;-65
2023/08/09 12:13:30;;;;;;;;;;;22.10;57.30;;;;;;4989177;28;20845;-64
2023/08/09 12:16:09;;;;;;;;;;;22.10;57.30;;;;;;4990062;28;19929;-64
2023/08/09 12:18:45;;;;;;;;;;;22.10;56.30;;;;;;4989786;28;19929;-69
2023/08/09 12:21:26;;;;;;;;;;;22.00;56.60;;;;;;4990358;28;20004;-70
2023/08/09 12:24:07;;;;;;;;;;;21.90;56.00;;;;;;4989636;28;20018;-69
2023/08/09 12:26:44;;;;;;;;;;;21.90;56.70;;;;;;4989027;28;19926;-71
2023/08/09 12:29:27;;;;;;;;;;;21.80;56.60;;;;;;4987715;28;19926;-69
2023/08/09 12:32:04;;;;;;;;;;;21.80;56.70;;;;;;4989037;28;20296;-70
2023/08/09 12:34:41;;;;;;;;;;;21.80;56.20;;;;;;4988232;28;19941;-69
2023/08/09 12:37:18;;;;;;;;;;;21.70;55.80;;;;;;4988943;28;19984;-70
2023/08/09 12:39:58;;;;;;;;;;;21.70;55.60;;;;;;4988126;28;19938;-70
2023/08/09 12:42:36;;;;;;;;;;;21.60;55.00;;;;;;4981921;28;19926;-70
2023/08/09 12:45:13;;;;;;;;;;;21.60;56.20;;;;;;4988648;28;19926;-71
2023/08/09 12:47:47;;;;;;;;;;;21.60;57.20;;;;;;4988945;28;19926;-70
2023/08/09 12:50:23;;;;;;;;;;;21.60;56.40;;;;;;4988410;28;19926;-70
2023/08/09 12:52:59;;;;;;;;;;;21.60;56.40;;;;;;4988504;28;20008;-70
2023/08/09 12:55:40;;;;;;;;;;;21.60;55.80;;;;;;4988388;28;20024;-69
2023/08/09 12:58:20;;;;;;;;;;;21.50;55.50;;;;;;4988863;28;19929;-70
2023/08/09 13:01:00;;;;;;;;;;;21.40;55.90;;;;;;4989643;28;19965;-70
2023/08/09 13:03:37;;;;;;;;;;;21.30;56.80;;;;;;4989262;28;19925;-70
2023/08/09 13:06:15;;;;;;;;;;;21.30;55.60;;;;;;4987651;28;19973;-70
2023/08/09 13:08:53;;;;;;;;;;;21.20;57.20;;;;;;4988712;28;19952;-69
2023/08/09 13:11:35;;;;;;;;;;;21.10;56.20;;;;;;4988195;28;20295;-70
2023/08/09 13:14:12;;;;;;;;;;;21.10;56.30;;;;;;4987097;28;19925;-71
2023/08/09 13:16:49;;;;;;;;;;;21.10;56.20;;;;;;4989456;28;19932;-70
2023/08/09 13:19:26;;;;;;;;;;;21.10;57.50;;;;;;4987628;28;19936;-69
2023/08/09 13:22:00;;;;;;;;;;;21.10;58.50;;;;;;4989879;28;20021;-70
2023/08/09 13:24:35;;;;;;;;;;;21.00;57.50;;;;;;4987910;28;19929;-69
2023/08/09 13:27:17;;;;;;;;;;;21.10;58.20;;;;;;4988706;28;19929;-70
2023/08/09 13:29:53;;;;;;;;;;;21.10;59.10;;;;;;4986807;28;19937;-71
2023/08/09 13:32:29;;;;;;;;;;;21.10;58.50;;;;;;4982169;28;20365;-70
2023/08/09 13:35:07;;;;;;;;;;;21.10;58.40;;;;;;4985831;28;19934;-70
2023/08/09 13:37:44;;;;;;;;;;;21.10;58.20;;;;;;4988363;28;19932;-70
2023/08/09 13:40:23;;;;;;;;;;;21.10;58.80;;;;;;4988533;28;20431;-70
2023/08/09 13:43:04;;;;;;;;;;;21.10;58.80;;;;;;4988739;28;19930;-70
2023/08/09 13:45:41;;;;;;;;;;;21.10;58.90;;;;;;4988539;28;19926;-70
2023/08/09 13:48:19;;;;;;;;;;;21.10;58.60;;;;;;4984395;28;19937;-70
2023/08/09 13:50:57;;;;;;;;;;;21.10;59.70;;;;;;4990229;28;19930;-70
2023/08/09 13:53:31;;;;;;;;;;;21.00;59.30;;;;;;4991493;28;19930;-70
2023/08/09 13:56:08;;;;;;;;;;;21.00;58.40;;;;;;4992531;28;19926;-70
2023/08/09 13:58:46;;;;;;;;;;;21.10;59.00;;;;;;4990566;28;20408;-71
2023/08/09 14:01:22;;;;;;;;;;;21.10;57.80;;;;;;4992938;28;19929;-71
2023/08/09 14:04:00;;;;;;;;;;;21.10;58.00;;;;;;4991457;28;20012;-70
2023/08/09 14:06:34;;;;;;;;;;;21.10;57.40;;;;;;4991703;28;19933;-70
2023/08/09 14:09:10;;;;;;;;;;;21.10;57.80;;;;;;4982969;28;19970;-70
2023/08/09 14:11:47;;;;;;;;;;;21.10;58.10;;;;;;4991106;28;19929;-70
2023/08/09 14:14:27;;;;;;;;;;;21.10;58.90;;;;;;4990866;28;19940;-71
2023/08/09 14:17:04;;;;;;;;;;;21.10;58.50;;;;;;4992043;28;20028;-70
2023/08/09 14:19:42;;;;;;;;;;;21.10;58.70;;;;;;4967413;28;20300;-70
2023/08/09 14:22:19;;;;;;;;;;;21.10;59.50;;;;;;4991916;28;19932;-71
2023/08/09 14:24:55;;;;;;;;;;;21.00;60.60;;;;;;4990400;28;20015;-71
2023/08/09 14:27:32;;;;;;;;;;;21.00;61.90;;;;;;4992044;28;19973;-69
2023/08/09 14:30:14;;;;;;;;;;;20.90;59.60;;;;;;4990794;28;19937;-70
2023/08/09 14:32:54;;;;;;;;;;;20.90;59.80;;;;;;4992527;28;19934;-70
2023/08/09 14:35:31;;;;;;;;;;;20.90;60.60;;;;;;4991187;28;19929;-70
2023/08/09 14:38:09;;;;;;;;;;;20.80;60.80;;;;;;4991435;28;19925;-72
2023/08/09 14:40:47;;;;;;;;;;;20.70;60.00;;;;;;4991157;28;19937;-73
2023/08/09 14:43:21;;;;;;;;;;;20.80;61.20;;;;;;4993526;28;19988;-74
2023/08/09 14:46:05;;;;;;;;;;;20.80;61.10;;;;;;4993858;28;19938;-73
2023/08/09 14:48:42;;;;;;;;;;;20.80;60.80;;;;;;4992772;28;19926;-73
2023/08/09 14:51:18;;;;;;;;;;;20.80;60.80;;;;;;4993425;28;20378;-75
2023/08/09 14:53:59;;;;;;;;;;;20.70;60.80;;;;;;4992069;28;19930;-74
2023/08/09 14:56:49;;;;;;;;;;;20.70;60.30;;;;;;4992620;28;19932;-74
2023/08/09 14:59:25;;;;;;;;;;;20.60;59.20;;;;;;4990708;28;20000;-74
2023/08/09 15:02:05;;;;;;;;;;;20.60;59.40;;;;;;4990519;28;19940;-75
2023/08/09 15:04:40;;;;;;;;;;;20.50;59.50;;;;;;4990408;28;19933;-74
2023/08/09 15:07:18;;;;;;;;;;;20.50;59.10;;;;;;5005609;28;20356;-74
2023/08/09 15:09:55;;;;;;;;;;;20.50;59.70;;;;;;4990245;28;20032;-73
2023/08/09 15:12:31;;;;;;;;;;;20.50;60.30;;;;;;4986948;28;20017;-73
2023/08/09 15:15:15;;;;;;;;;;;20.50;60.40;;;;;;4990485;28;19933;-74
2023/08/09 15:17:55;;;;;;;;;;;20.60;60.40;;;;;;4976926;28;19930;-73
2023/08/09 15:20:32;;;;;;;;;;;20.60;60.70;;;;;;4970020;28;20074;-74
2023/08/09 15:23:09;;;;;;;;;;;20.60;60.10;;;;;;4970719;28;19985;-74